createdAt,value
2018-02-07T10:34:44.498Z,36.05
2018-02-07T10:36:46.303Z,42.73
2018-02-07T10:46:46.562Z,31.20
2018-02-07T10:48:47.571Z,34.53
2018-02-07T10:50:48.596Z,37.20
2018-02-07T10:52:49.599Z,37.03
2018-02-07T10:54:50.563Z,32.57
2018-02-07T10:56:51.519Z,33.60
2018-02-07T10:58:52.612Z,35.33
2018-02-07T11:00:53.611Z,34.80
2018-02-07T11:02:54.674Z,32.43
2018-02-07T11:05:05.284Z,30.93
2018-02-07T11:07:07.064Z,31.83
2018-02-07T11:09:08.089Z,29.50
2018-02-07T11:13:36.857Z,34.65
2018-02-07T11:15:37.824Z,38.03
2018-02-07T11:17:39.102Z,31.90
2018-02-07T11:19:50.737Z,33.97
2018-02-07T11:22:05.189Z,31.07
2018-02-07T11:24:06.143Z,29.00
2018-02-07T11:26:07.130Z,27.80
2018-02-07T11:30:48.591Z,37.33
2018-02-07T11:33:05.128Z,35.63
2018-02-07T11:37:34.093Z,34.00
2018-02-07T11:42:13.229Z,31.93
2018-02-07T11:46:50.835Z,32.42
2018-02-07T11:48:52.015Z,39.60
2018-02-07T11:50:52.983Z,34.77
2018-02-07T11:55:46.578Z,32.37
2018-02-07T11:57:48.262Z,36.93
2018-02-07T11:59:49.695Z,32.23
2018-02-07T12:02:04.612Z,33.50
2018-02-07T12:09:14.822Z,31.07
2018-02-07T12:13:43.624Z,32.33
2018-02-07T12:15:44.603Z,30.13
2018-02-07T12:20:13.812Z,31.12
2018-02-07T12:22:15.404Z,28.83
2018-02-07T12:24:17.924Z,36.83
2018-02-07T12:26:19.120Z,31.43
2018-02-07T12:28:20.104Z,33.33
2018-02-07T12:30:21.177Z,48.73
2018-02-07T12:32:40.076Z,34.37
2018-02-07T12:34:42.182Z,31.27
2018-02-07T12:37:04.294Z,32.23
2018-02-07T12:41:33.581Z,32.37
2018-02-07T12:43:34.574Z,34.33
2018-02-07T12:45:35.533Z,28.77
2018-02-07T12:47:36.584Z,31.87
2018-02-07T12:49:46.636Z,31.57
2018-02-07T12:51:48.010Z,29.20
2018-02-07T12:53:49.832Z,32.50
2018-02-07T12:58:19.144Z,34.30
2018-02-07T13:00:20.127Z,28.87
2018-02-07T13:04:49.997Z,37.10
2018-02-07T13:06:51.015Z,30.07
2018-02-07T13:08:52.149Z,35.07
2018-02-07T13:13:21.945Z,32.67
2018-02-07T13:15:48.571Z,32.57
2018-02-07T13:17:49.554Z,31.50
2018-02-07T13:22:18.879Z,34.13
2018-02-07T13:24:20.628Z,35.17
2018-02-07T13:28:59.013Z,39.22
2018-02-07T13:31:00.002Z,38.27
2018-02-07T13:35:28.956Z,39.03
2018-02-07T13:37:29.991Z,34.90
2018-02-07T13:41:58.870Z,33.90
2018-02-07T13:44:00.420Z,34.20
2018-02-07T13:46:01.839Z,31.25
2018-02-07T13:48:02.860Z,34.80
2018-02-07T13:52:31.914Z,35.27
2018-02-07T13:54:32.884Z,33.63
2018-02-07T13:56:34.357Z,36.03
2018-02-07T13:58:35.386Z,32.78
2018-02-07T14:00:42.368Z,30.80
2018-02-07T14:02:43.387Z,37.37
2018-02-07T14:04:44.528Z,35.37
2018-02-07T14:06:45.523Z,34.20
2018-02-07T14:08:47.288Z,38.63
2018-02-07T14:10:49.032Z,34.73
2018-02-07T14:12:50.020Z,34.70
2018-02-07T14:14:51.265Z,34.47
2018-02-07T14:16:52.244Z,36.73
2018-02-07T14:18:53.234Z,33.27
2018-02-07T14:20:54.967Z,42.17
2018-02-07T14:22:55.972Z,36.20
2018-02-07T14:24:57.001Z,38.77
2018-02-07T14:26:58.719Z,35.90
2018-02-07T14:28:59.758Z,41.80
2018-02-07T14:34:16.188Z,33.50
2018-02-07T14:36:31.290Z,40.73
2018-02-07T14:38:32.239Z,35.25
2018-02-07T14:40:33.200Z,36.83
2018-02-07T14:42:34.211Z,36.60
2018-02-07T14:44:35.235Z,33.70
2018-02-07T14:47:00.785Z,36.03
2018-02-07T14:51:30.997Z,36.42
2018-02-07T14:53:31.952Z,33.53
2018-02-07T14:58:01.603Z,30.43
2018-02-07T15:00:02.622Z,37.90
2018-02-07T15:04:46.024Z,34.47
2018-02-07T15:06:46.985Z,37.47
2018-02-07T15:08:48.005Z,41.22
2018-02-07T15:10:49.692Z,40.20
2018-02-07T15:12:50.643Z,43.53
2018-02-07T15:15:01.260Z,38.80
2018-02-07T15:17:02.273Z,36.07
2018-02-07T15:19:03.226Z,38.60
2018-02-07T15:21:04.625Z,37.58
2018-02-07T15:23:05.600Z,38.53
2018-02-07T15:25:30.977Z,40.47
2018-02-07T15:34:06.263Z,47.87
2018-02-07T15:36:07.911Z,40.40
2018-02-07T15:38:31.175Z,45.07
2018-02-07T15:40:32.172Z,44.70
2018-02-07T15:42:33.314Z,37.50
2018-02-07T15:44:34.611Z,41.97
2018-02-07T15:46:35.651Z,37.57
2018-02-07T15:48:37.352Z,41.93
2018-02-07T15:52:56.808Z,41.83
2018-02-07T15:54:57.776Z,46.13
2018-02-07T15:56:58.792Z,41.95
2018-02-07T15:58:59.744Z,39.53
2018-02-07T16:03:09.587Z,41.50
2018-02-07T16:05:10.871Z,41.87
2018-02-07T16:07:12.755Z,45.33
2018-02-07T16:09:13.856Z,43.65
2018-02-07T16:11:14.972Z,37.50
2018-02-07T16:13:31.351Z,38.47
2018-02-07T16:15:32.335Z,41.78
2018-02-07T16:17:33.279Z,42.43
2018-02-07T16:22:11.801Z,46.53
2018-02-07T16:24:12.868Z,48.40
2018-02-07T16:26:13.943Z,51.33
2018-02-07T16:28:14.900Z,46.55
2018-02-07T16:30:16.096Z,47.57
2018-02-07T16:32:17.208Z,44.73
2018-02-07T16:36:45.787Z,46.70
2018-02-07T16:39:12.826Z,41.83
2018-02-07T16:43:43.060Z,42.57
2018-02-07T16:45:44.276Z,41.87
2018-02-07T16:50:12.754Z,38.40
2018-02-07T16:52:13.745Z,40.63
2018-02-07T16:54:14.826Z,50.50
2018-02-07T16:56:42.558Z,47.17
2018-02-07T16:58:52.488Z,40.70
2018-02-07T17:00:53.489Z,44.23
2018-02-07T17:02:54.471Z,45.40
2018-02-07T17:04:55.645Z,42.05
2018-02-07T17:07:15.039Z,41.77
2018-02-07T17:09:16.019Z,47.13
2018-02-07T17:11:16.993Z,42.42
2018-02-07T17:13:18.687Z,39.50
2018-02-07T17:15:19.641Z,41.10
2018-02-07T17:17:27.447Z,48.47
2018-02-07T17:19:38.539Z,39.80
2018-02-07T17:24:08.203Z,44.75
2018-02-07T17:26:09.198Z,50.30
2018-02-07T17:28:10.157Z,43.22
2018-02-07T17:30:11.150Z,38.70
2018-02-07T17:32:12.614Z,38.10
2018-02-07T17:34:13.808Z,44.20
2018-02-07T17:36:14.848Z,51.27
2018-02-07T17:38:15.825Z,41.77
2018-02-07T17:40:17.047Z,52.30
2018-02-07T17:42:18.028Z,45.83
2018-02-07T17:44:19.058Z,44.07
2018-02-07T17:46:20.049Z,51.05
2018-02-07T17:48:21.180Z,49.40
2018-02-07T17:50:22.187Z,52.87
2018-02-07T17:52:23.770Z,52.80
2018-02-07T17:54:26.393Z,47.93
2018-02-07T17:56:27.497Z,44.23
2018-02-07T17:58:28.454Z,49.42
2018-02-07T18:00:29.455Z,45.83
2018-02-07T18:02:31.178Z,47.20
2018-02-07T18:04:32.500Z,47.53
2018-02-07T18:06:34.240Z,53.03
2018-02-07T18:08:36.005Z,44.00
2018-02-07T18:10:38.321Z,45.27
2018-02-07T18:12:39.311Z,52.33
2018-02-07T18:14:40.297Z,50.70
2018-02-07T18:16:41.582Z,65.23
2018-02-07T18:18:43.322Z,56.43
2018-02-07T18:20:44.301Z,47.60
2018-02-07T18:22:45.317Z,48.07
2018-02-07T18:24:46.280Z,54.53
2018-02-07T18:26:47.252Z,50.33
2018-02-07T18:28:48.249Z,51.33
2018-02-07T18:30:49.889Z,44.13
2018-02-07T18:32:50.939Z,40.23
2018-02-07T18:34:51.911Z,56.57
2018-02-07T18:36:52.892Z,54.97
2018-02-07T18:38:54.124Z,53.23
2018-02-07T18:40:55.153Z,47.53
2018-02-07T18:42:56.124Z,45.63
2018-02-07T18:44:57.762Z,53.23
2018-02-07T18:46:59.251Z,46.50
2018-02-07T18:49:00.292Z,72.70
2018-02-07T18:51:01.261Z,60.93
2018-02-07T18:53:02.288Z,59.20
2018-02-07T18:55:03.267Z,62.13
2018-02-07T18:57:10.252Z,65.23
2018-02-07T18:59:11.271Z,58.45
2018-02-07T19:01:12.294Z,71.90
2018-02-07T19:03:13.347Z,59.30
2018-02-07T19:05:14.301Z,44.78
2018-02-07T19:07:16.707Z,45.60
2018-02-07T19:09:17.720Z,45.73
2018-02-07T19:11:18.755Z,54.50
2018-02-07T19:13:19.720Z,60.07
2018-02-07T19:15:20.728Z,53.60
2018-02-07T19:17:41.578Z,52.42
2018-02-07T19:19:42.565Z,51.07
2018-02-07T19:24:11.264Z,56.22
2018-02-07T19:26:12.211Z,52.00
2018-02-07T19:28:13.208Z,47.73
2018-02-07T19:30:40.561Z,54.35
2018-02-07T19:32:41.602Z,56.17
2018-02-07T19:34:42.617Z,56.25
2018-02-07T19:36:43.647Z,49.70
2018-02-07T19:41:22.571Z,52.60
2018-02-07T19:45:51.549Z,52.60
2018-02-07T19:47:52.579Z,55.97
2018-02-07T19:49:53.653Z,56.50
2018-02-07T19:54:32.572Z,56.03
2018-02-07T19:56:33.643Z,57.60
2018-02-07T19:58:34.608Z,57.00
2018-02-07T20:00:35.793Z,58.70
2018-02-07T20:02:36.769Z,61.30
2018-02-07T20:04:37.760Z,64.75
2018-02-07T20:06:52.754Z,63.43
2018-02-07T20:08:53.797Z,73.37
2018-02-07T20:10:54.808Z,80.07
2018-02-07T20:12:55.779Z,76.67
2018-02-07T20:17:33.822Z,64.90
2018-02-07T20:22:12.033Z,51.97
2018-02-07T20:24:14.633Z,61.93
2018-02-07T20:26:16.871Z,56.97
2018-02-07T20:28:18.917Z,55.65
2018-02-07T20:30:20.309Z,57.67
2018-02-07T20:34:58.832Z,62.33
2018-02-07T20:37:04.463Z,69.90
2018-02-07T20:39:05.691Z,70.03
2018-02-07T20:43:50.227Z,59.53
2018-02-07T20:45:51.282Z,64.03
2018-02-07T20:47:52.351Z,53.83
2018-02-07T20:50:01.280Z,56.88
2018-02-07T20:52:03.271Z,53.28
2018-02-07T20:56:53.381Z,59.95
2018-02-07T20:58:55.687Z,63.13
2018-02-07T21:00:56.775Z,60.05
2018-02-07T21:05:34.599Z,59.28
2018-02-07T21:07:44.081Z,65.47
2018-02-07T21:09:45.085Z,69.18
2018-02-07T21:11:46.183Z,66.10
2018-02-07T21:13:47.209Z,72.85
2018-02-07T21:15:48.219Z,59.08
2018-02-07T21:17:49.291Z,59.92
2018-02-07T21:19:51.200Z,68.97
2018-02-07T21:21:52.368Z,64.10
2018-02-07T21:23:53.481Z,56.00
2018-02-07T21:25:54.459Z,54.83
2018-02-07T21:27:55.549Z,50.73
2018-02-07T21:29:56.524Z,49.22
2018-02-07T21:31:57.567Z,46.47
2018-02-07T21:33:58.576Z,51.15
2018-02-07T21:38:37.524Z,50.92
2018-02-07T21:40:38.823Z,54.90
2018-02-07T21:45:17.768Z,47.38
2018-02-07T21:47:18.863Z,58.05
2018-02-07T21:49:19.977Z,60.40
2018-02-07T21:51:46.581Z,57.88
2018-02-07T21:53:47.665Z,52.20
2018-02-07T21:55:49.402Z,54.50
2018-02-07T21:57:50.486Z,57.47
2018-02-07T22:00:17.128Z,57.13
2018-02-07T22:04:53.415Z,67.50
2018-02-07T22:06:54.471Z,59.25
2018-02-07T22:08:55.512Z,57.20
2018-02-07T22:11:02.661Z,65.68
2018-02-07T22:13:03.732Z,61.55
2018-02-07T22:15:04.709Z,57.20
2018-02-07T22:17:05.684Z,63.33
2018-02-07T22:19:06.841Z,62.90
2018-02-07T22:21:07.961Z,57.28
2018-02-07T22:23:08.988Z,58.90
2018-02-07T22:25:10.001Z,56.78
2018-02-07T22:27:17.088Z,61.33
2018-02-07T22:31:52.014Z,51.90
2018-02-07T22:33:53.076Z,67.22
2018-02-07T22:35:54.039Z,66.87
2018-02-07T22:37:55.024Z,58.63
2018-02-07T22:40:00.083Z,69.80
2018-02-07T22:42:01.208Z,51.28
2018-02-07T22:44:02.214Z,63.03
2018-02-07T22:46:03.200Z,63.17
2018-02-07T22:48:04.207Z,54.30
2018-02-07T22:50:05.135Z,61.13
2018-02-07T22:52:06.116Z,55.00
2018-02-07T22:54:07.075Z,58.17
2018-02-07T22:56:08.032Z,47.13
2018-02-07T22:58:09.053Z,51.03
2018-02-07T23:00:10.094Z,61.37
2018-02-07T23:02:21.621Z,54.80
2018-02-07T23:04:22.645Z,45.60
2018-02-07T23:06:23.667Z,58.00
2018-02-07T23:08:24.657Z,46.05
2018-02-07T23:10:25.630Z,48.83
2018-02-07T23:15:04.702Z,52.47
2018-02-07T23:17:30.241Z,49.50
2018-02-07T23:24:50.301Z,54.10
2018-02-07T23:26:51.361Z,51.70
2018-02-07T23:34:10.092Z,43.83
2018-02-07T23:36:11.178Z,59.63
2018-02-07T23:38:12.331Z,52.65
2018-02-07T23:40:13.508Z,55.00
2018-02-07T23:42:23.665Z,47.83
2018-02-07T23:44:25.100Z,52.45
2018-02-07T23:46:26.184Z,55.88
2018-02-07T23:56:03.597Z,43.30
